Terminal Aerodrome Forecast
Issued by NWS

Home | Current Version | Previous Version | Text Only | Print | Product List | Glossary On
Versions: 1 2 3 4 5 6 7 8 9 10 11 12 13 14 15 16 17 18 19 20 21 22
607
FTUS46 KSEW 262320
TAFHQM
TAF
KHQM 262320Z 2700/2724 24011KT P6SM SCT150
     FM270500 28014KT P6SM VCSH BKN020 OVC050
     FM270700 29010KT 4SM -RA BR OVC015
      TEMPO 2708/2711 2SM -RA BR OVC006
     FM271800 27010KT P6SM OVC015
     FM272000 24010KT P6SM BKN025=

USA.gov is the U.S. government's official web portal to all federal, state and local government web resources and services.